sensor_id;sensor_type;location;lat;lon;timestamp;P1;durP1;ratioP1;P2;durP2;ratioP2
65271;SDS011;51868;48.812;8.198;2022-09-09T00:02:00;6.63;;;1.60;;
65271;SDS011;51868;48.812;8.198;2022-09-09T00:04:31;4.75;;;1.40;;
65271;SDS011;51868;48.812;8.198;2022-09-09T00:07:01;5.75;;;1.65;;
65271;SDS011;51868;48.812;8.198;2022-09-09T00:09:35;5.50;;;1.63;;
65271;SDS011;51868;48.812;8.198;2022-09-09T00:12:10;2.92;;;1.50;;
65271;SDS011;51868;48.812;8.198;2022-09-09T00:14:46;7.18;;;1.67;;
65271;SDS011;51868;48.812;8.198;2022-09-09T00:17:20;5.22;;;1.85;;
65271;SDS011;51868;48.812;8.198;2022-09-09T00:20:00;5.15;;;1.70;;
65271;SDS011;51868;48.812;8.198;2022-09-09T00:22:32;3.78;;;1.75;;
65271;SDS011;51868;48.812;8.198;2022-09-09T00:25:08;6.40;;;1.83;;
65271;SDS011;51868;48.812;8.198;2022-09-09T00:27:45;4.00;;;1.40;;
65271;SDS011;51868;48.812;8.198;2022-09-09T00:30:17;7.75;;;1.45;;
65271;SDS011;51868;48.812;8.198;2022-09-09T00:32:49;7.43;;;1.75;;
65271;SDS011;51868;48.812;8.198;2022-09-09T00:35:21;4.55;;;1.73;;
65271;SDS011;51868;48.812;8.198;2022-09-09T00:37:52;3.67;;;1.50;;
65271;SDS011;51868;48.812;8.198;2022-09-09T00:40:25;6.13;;;1.73;;
65271;SDS011;51868;48.812;8.198;2022-09-09T00:43:07;4.18;;;1.40;;
65271;SDS011;51868;48.812;8.198;2022-09-09T00:45:59;6.03;;;1.30;;
65271;SDS011;51868;48.812;8.198;2022-09-09T00:48:54;4.00;;;1.45;;
65271;SDS011;51868;48.812;8.198;2022-09-09T00:51:30;4.57;;;1.25;;
65271;SDS011;51868;48.812;8.198;2022-09-09T00:54:14;5.60;;;1.77;;
65271;SDS011;51868;48.812;8.198;2022-09-09T00:56:57;4.32;;;1.38;;
65271;SDS011;51868;48.812;8.198;2022-09-09T00:59:35;5.00;;;1.60;;
65271;SDS011;51868;48.812;8.198;2022-09-09T01:02:16;9.30;;;1.88;;
65271;SDS011;51868;48.812;8.198;2022-09-09T01:04:53;4.88;;;1.50;;
65271;SDS011;51868;48.812;8.198;2022-09-09T01:07:21;4.20;;;1.38;;
65271;SDS011;51868;48.812;8.198;2022-09-09T01:09:52;4.88;;;1.30;;
65271;SDS011;51868;48.812;8.198;2022-09-09T01:12:25;4.28;;;1.17;;
65271;SDS011;51868;48.812;8.198;2022-09-09T01:15:00;4.90;;;1.58;;
65271;SDS011;51868;48.812;8.198;2022-09-09T01:17:38;5.07;;;1.20;;
65271;SDS011;51868;48.812;8.198;2022-09-09T01:20:17;7.63;;;1.35;;
65271;SDS011;51868;48.812;8.198;2022-09-09T01:23:04;3.00;;;1.23;;
65271;SDS011;51868;48.812;8.198;2022-09-09T01:26:03;2.92;;;1.00;;
65271;SDS011;51868;48.812;8.198;2022-09-09T01:28:38;6.78;;;1.40;;
65271;SDS011;51868;48.812;8.198;2022-09-09T01:31:07;2.38;;;0.88;;
65271;SDS011;51868;48.812;8.198;2022-09-09T01:33:38;6.88;;;1.40;;
65271;SDS011;51868;48.812;8.198;2022-09-09T01:36:06;7.18;;;1.38;;
65271;SDS011;51868;48.812;8.198;2022-09-09T01:38:37;4.70;;;1.10;;
65271;SDS011;51868;48.812;8.198;2022-09-09T01:41:07;2.55;;;0.90;;
65271;SDS011;51868;48.812;8.198;2022-09-09T01:43:36;4.97;;;1.33;;
65271;SDS011;51868;48.812;8.198;2022-09-09T01:46:04;2.15;;;0.80;;
65271;SDS011;51868;48.812;8.198;2022-09-09T01:48:32;2.65;;;0.98;;
65271;SDS011;51868;48.812;8.198;2022-09-09T01:51:02;3.35;;;1.40;;
65271;SDS011;51868;48.812;8.198;2022-09-09T01:53:32;2.83;;;1.10;;
65271;SDS011;51868;48.812;8.198;2022-09-09T01:56:03;1.98;;;0.70;;
65271;SDS011;51868;48.812;8.198;2022-09-09T01:58:50;2.42;;;0.90;;
65271;SDS011;51868;48.812;8.198;2022-09-09T02:01:30;3.72;;;0.85;;
65271;SDS011;51868;48.812;8.198;2022-09-09T02:04:11;1.77;;;1.00;;
65271;SDS011;51868;48.812;8.198;2022-09-09T02:06:50;3.55;;;0.90;;
65271;SDS011;51868;48.812;8.198;2022-09-09T02:09:25;1.92;;;0.95;;
65271;SDS011;51868;48.812;8.198;2022-09-09T02:12:00;1.02;;;0.65;;
65271;SDS011;51868;48.812;8.198;2022-09-09T02:14:36;2.17;;;1.05;;
65271;SDS011;51868;48.812;8.198;2022-09-09T02:17:09;2.08;;;0.95;;
65271;SDS011;51868;48.812;8.198;2022-09-09T02:19:43;1.13;;;0.70;;
65271;SDS011;51868;48.812;8.198;2022-09-09T02:22:15;4.68;;;1.00;;
65271;SDS011;51868;48.812;8.198;2022-09-09T02:24:46;1.98;;;1.10;;
65271;SDS011;51868;48.812;8.198;2022-09-09T02:27:14;2.80;;;0.95;;
65271;SDS011;51868;48.812;8.198;2022-09-09T02:29:46;2.00;;;0.80;;
65271;SDS011;51868;48.812;8.198;2022-09-09T02:32:15;3.95;;;1.13;;
65271;SDS011;51868;48.812;8.198;2022-09-09T02:34:47;2.22;;;1.13;;
65271;SDS011;51868;48.812;8.198;2022-09-09T02:37:18;3.83;;;1.48;;
65271;SDS011;51868;48.812;8.198;2022-09-09T02:39:51;3.25;;;1.00;;
65271;SDS011;51868;48.812;8.198;2022-09-09T02:42:19;4.20;;;0.98;;
65271;SDS011;51868;48.812;8.198;2022-09-09T02:44:51;4.90;;;1.30;;
65271;SDS011;51868;48.812;8.198;2022-09-09T02:47:25;1.85;;;0.95;;
65271;SDS011;51868;48.812;8.198;2022-09-09T02:49:59;4.28;;;0.93;;
65271;SDS011;51868;48.812;8.198;2022-09-09T02:52:38;1.15;;;0.90;;
65271;SDS011;51868;48.812;8.198;2022-09-09T02:55:10;3.90;;;1.10;;
65271;SDS011;51868;48.812;8.198;2022-09-09T02:57:43;2.75;;;1.48;;
65271;SDS011;51868;48.812;8.198;2022-09-09T03:00:15;3.47;;;1.02;;
65271;SDS011;51868;48.812;8.198;2022-09-09T03:02:43;2.35;;;1.08;;
65271;SDS011;51868;48.812;8.198;2022-09-09T03:05:11;3.97;;;1.38;;
65271;SDS011;51868;48.812;8.198;2022-09-09T03:07:40;3.38;;;1.00;;
65271;SDS011;51868;48.812;8.198;2022-09-09T03:10:08;3.35;;;0.90;;
65271;SDS011;51868;48.812;8.198;2022-09-09T03:12:36;3.72;;;1.08;;
65271;SDS011;51868;48.812;8.198;2022-09-09T03:15:05;2.67;;;1.05;;
65271;SDS011;51868;48.812;8.198;2022-09-09T03:17:35;3.85;;;0.75;;
65271;SDS011;51868;48.812;8.198;2022-09-09T03:20:03;2.75;;;1.17;;
65271;SDS011;51868;48.812;8.198;2022-09-09T03:22:31;2.90;;;0.90;;
65271;SDS011;51868;48.812;8.198;2022-09-09T03:24:59;1.25;;;0.70;;
65271;SDS011;51868;48.812;8.198;2022-09-09T03:27:28;1.50;;;0.90;;
65271;SDS011;51868;48.812;8.198;2022-09-09T03:29:59;3.17;;;1.17;;
65271;SDS011;51868;48.812;8.198;2022-09-09T03:32:29;1.98;;;0.85;;
65271;SDS011;51868;48.812;8.198;2022-09-09T03:34:58;2.05;;;0.80;;
65271;SDS011;51868;48.812;8.198;2022-09-09T03:37:26;9.40;;;1.23;;
65271;SDS011;51868;48.812;8.198;2022-09-09T03:39:54;1.77;;;0.80;;
65271;SDS011;51868;48.812;8.198;2022-09-09T03:42:22;5.05;;;1.80;;
65271;SDS011;51868;48.812;8.198;2022-09-09T03:44:52;4.50;;;1.00;;
65271;SDS011;51868;48.812;8.198;2022-09-09T03:47:20;2.33;;;1.02;;
65271;SDS011;51868;48.812;8.198;2022-09-09T03:49:48;1.98;;;0.60;;
65271;SDS011;51868;48.812;8.198;2022-09-09T03:52:19;4.28;;;0.85;;
65271;SDS011;51868;48.812;8.198;2022-09-09T03:54:49;2.78;;;0.85;;
65271;SDS011;51868;48.812;8.198;2022-09-09T03:57:17;1.13;;;0.82;;
65271;SDS011;51868;48.812;8.198;2022-09-09T03:59:49;2.15;;;0.65;;
65271;SDS011;51868;48.812;8.198;2022-09-09T04:02:19;2.60;;;0.63;;
65271;SDS011;51868;48.812;8.198;2022-09-09T04:04:47;2.28;;;0.98;;
65271;SDS011;51868;48.812;8.198;2022-09-09T04:07:16;2.50;;;0.70;;
65271;SDS011;51868;48.812;8.198;2022-09-09T04:09:45;2.08;;;0.60;;
65271;SDS011;51868;48.812;8.198;2022-09-09T04:12:13;1.63;;;0.52;;
65271;SDS011;51868;48.812;8.198;2022-09-09T04:14:42;3.70;;;0.70;;
65271;SDS011;51868;48.812;8.198;2022-09-09T04:17:10;3.83;;;0.75;;
65271;SDS011;51868;48.812;8.198;2022-09-09T04:19:39;2.08;;;0.90;;
65271;SDS011;51868;48.812;8.198;2022-09-09T04:22:08;4.15;;;0.90;;
65271;SDS011;51868;48.812;8.198;2022-09-09T04:24:38;2.20;;;0.90;;
65271;SDS011;51868;48.812;8.198;2022-09-09T04:27:15;2.17;;;0.80;;
65271;SDS011;51868;48.812;8.198;2022-09-09T04:29:43;1.50;;;0.75;;
65271;SDS011;51868;48.812;8.198;2022-09-09T04:32:12;1.95;;;0.70;;
65271;SDS011;51868;48.812;8.198;2022-09-09T04:34:41;4.05;;;0.77;;
65271;SDS011;51868;48.812;8.198;2022-09-09T04:37:09;2.65;;;0.98;;
65271;SDS011;51868;48.812;8.198;2022-09-09T04:39:37;2.15;;;1.00;;
65271;SDS011;51868;48.812;8.198;2022-09-09T04:42:04;3.45;;;0.80;;
65271;SDS011;51868;48.812;8.198;2022-09-09T04:44:34;2.75;;;0.82;;
65271;SDS011;51868;48.812;8.198;2022-09-09T04:47:02;3.25;;;0.80;;
65271;SDS011;51868;48.812;8.198;2022-09-09T04:49:35;3.30;;;1.00;;
65271;SDS011;51868;48.812;8.198;2022-09-09T04:52:04;3.08;;;0.70;;
65271;SDS011;51868;48.812;8.198;2022-09-09T04:54:33;2.40;;;0.80;;
65271;SDS011;51868;48.812;8.198;2022-09-09T04:57:03;2.05;;;0.70;;
65271;SDS011;51868;48.812;8.198;2022-09-09T04:59:31;3.67;;;0.93;;
65271;SDS011;51868;48.812;8.198;2022-09-09T05:02:01;2.97;;;1.00;;
65271;SDS011;51868;48.812;8.198;2022-09-09T05:04:29;2.10;;;0.88;;
65271;SDS011;51868;48.812;8.198;2022-09-09T05:06:57;1.80;;;0.80;;
65271;SDS011;51868;48.812;8.198;2022-09-09T05:09:27;2.40;;;0.90;;
65271;SDS011;51868;48.812;8.198;2022-09-09T05:11:56;4.90;;;0.98;;
65271;SDS011;51868;48.812;8.198;2022-09-09T05:14:24;3.95;;;0.98;;
65271;SDS011;51868;48.812;8.198;2022-09-09T05:16:52;1.25;;;0.73;;
65271;SDS011;51868;48.812;8.198;2022-09-09T05:19:25;2.03;;;0.95;;
65271;SDS011;51868;48.812;8.198;2022-09-09T05:21:54;3.47;;;1.00;;
65271;SDS011;51868;48.812;8.198;2022-09-09T05:24:21;2.35;;;0.80;;
65271;SDS011;51868;48.812;8.198;2022-09-09T05:26:51;2.83;;;0.80;;
65271;SDS011;51868;48.812;8.198;2022-09-09T05:29:20;2.63;;;0.73;;
65271;SDS011;51868;48.812;8.198;2022-09-09T05:31:47;2.88;;;0.98;;
65271;SDS011;51868;48.812;8.198;2022-09-09T05:34:18;2.95;;;1.20;;
65271;SDS011;51868;48.812;8.198;2022-09-09T05:36:48;3.22;;;0.77;;
65271;SDS011;51868;48.812;8.198;2022-09-09T05:39:17;2.47;;;0.93;;
65271;SDS011;51868;48.812;8.198;2022-09-09T05:41:47;2.28;;;1.10;;
65271;SDS011;51868;48.812;8.198;2022-09-09T05:44:20;3.65;;;1.02;;
65271;SDS011;51868;48.812;8.198;2022-09-09T05:46:49;3.28;;;1.05;;
65271;SDS011;51868;48.812;8.198;2022-09-09T05:49:17;3.88;;;1.00;;
65271;SDS011;51868;48.812;8.198;2022-09-09T05:51:45;2.78;;;0.90;;
65271;SDS011;51868;48.812;8.198;2022-09-09T05:54:15;3.22;;;1.23;;
65271;SDS011;51868;48.812;8.198;2022-09-09T05:56:44;1.55;;;0.80;;
65271;SDS011;51868;48.812;8.198;2022-09-09T05:59:16;4.05;;;1.17;;
65271;SDS011;51868;48.812;8.198;2022-09-09T06:01:45;3.42;;;1.30;;
65271;SDS011;51868;48.812;8.198;2022-09-09T06:04:13;3.45;;;1.20;;
65271;SDS011;51868;48.812;8.198;2022-09-09T06:06:44;5.35;;;1.48;;
65271;SDS011;51868;48.812;8.198;2022-09-09T06:09:12;4.32;;;1.25;;
65271;SDS011;51868;48.812;8.198;2022-09-09T06:11:43;2.88;;;1.05;;
65271;SDS011;51868;48.812;8.198;2022-09-09T06:14:11;1.88;;;1.33;;
65271;SDS011;51868;48.812;8.198;2022-09-09T06:16:41;3.22;;;1.13;;
65271;SDS011;51868;48.812;8.198;2022-09-09T06:19:12;3.30;;;1.27;;
65271;SDS011;51868;48.812;8.198;2022-09-09T06:21:42;6.25;;;1.15;;
65271;SDS011;51868;48.812;8.198;2022-09-09T06:24:10;1.73;;;0.90;;
65271;SDS011;51868;48.812;8.198;2022-09-09T06:26:40;3.30;;;1.00;;
65271;SDS011;51868;48.812;8.198;2022-09-09T06:29:09;1.55;;;0.90;;
65271;SDS011;51868;48.812;8.198;2022-09-09T06:31:37;1.83;;;0.85;;
65271;SDS011;51868;48.812;8.198;2022-09-09T06:34:08;3.75;;;1.35;;
65271;SDS011;51868;48.812;8.198;2022-09-09T06:36:37;3.42;;;0.80;;
65271;SDS011;51868;48.812;8.198;2022-09-09T06:39:07;6.18;;;1.10;;
65271;SDS011;51868;48.812;8.198;2022-09-09T06:41:40;5.40;;;1.20;;
65271;SDS011;51868;48.812;8.198;2022-09-09T06:44:10;3.40;;;0.95;;
65271;SDS011;51868;48.812;8.198;2022-09-09T06:47:03;3.08;;;0.90;;
65271;SDS011;51868;48.812;8.198;2022-09-09T06:49:31;3.00;;;1.20;;
65271;SDS011;51868;48.812;8.198;2022-09-09T06:52:03;5.10;;;1.33;;
65271;SDS011;51868;48.812;8.198;2022-09-09T06:54:31;2.28;;;1.15;;
65271;SDS011;51868;48.812;8.198;2022-09-09T06:57:00;4.55;;;1.48;;
65271;SDS011;51868;48.812;8.198;2022-09-09T06:59:51;3.15;;;1.10;;
65271;SDS011;51868;48.812;8.198;2022-09-09T07:02:19;3.53;;;1.10;;
65271;SDS011;51868;48.812;8.198;2022-09-09T07:04:48;4.07;;;1.20;;
65271;SDS011;51868;48.812;8.198;2022-09-09T07:07:17;3.95;;;1.45;;
65271;SDS011;51868;48.812;8.198;2022-09-09T07:09:45;4.32;;;1.00;;
65271;SDS011;51868;48.812;8.198;2022-09-09T07:12:15;2.47;;;1.33;;
65271;SDS011;51868;48.812;8.198;2022-09-09T07:14:43;3.53;;;1.17;;
65271;SDS011;51868;48.812;8.198;2022-09-09T07:17:15;5.28;;;1.20;;
65271;SDS011;51868;48.812;8.198;2022-09-09T07:19:43;4.28;;;1.20;;
65271;SDS011;51868;48.812;8.198;2022-09-09T07:22:10;5.63;;;1.30;;
65271;SDS011;51868;48.812;8.198;2022-09-09T07:24:38;6.28;;;1.20;;
65271;SDS011;51868;48.812;8.198;2022-09-09T07:27:06;6.65;;;1.40;;
65271;SDS011;51868;48.812;8.198;2022-09-09T07:29:35;6.38;;;1.38;;
65271;SDS011;51868;48.812;8.198;2022-09-09T07:32:23;3.30;;;1.40;;
65271;SDS011;51868;48.812;8.198;2022-09-09T07:35:05;4.30;;;1.50;;
65271;SDS011;51868;48.812;8.198;2022-09-09T07:37:37;6.70;;;1.45;;
65271;SDS011;51868;48.812;8.198;2022-09-09T07:40:16;5.82;;;1.73;;
65271;SDS011;51868;48.812;8.198;2022-09-09T07:42:44;5.40;;;1.27;;
65271;SDS011;51868;48.812;8.198;2022-09-09T07:45:12;3.72;;;1.60;;
65271;SDS011;51868;48.812;8.198;2022-09-09T07:47:42;5.80;;;1.27;;
65271;SDS011;51868;48.812;8.198;2022-09-09T07:50:10;4.63;;;1.15;;
65271;SDS011;51868;48.812;8.198;2022-09-09T07:52:44;5.03;;;1.20;;
65271;SDS011;51868;48.812;8.198;2022-09-09T07:55:11;5.47;;;1.35;;
65271;SDS011;51868;48.812;8.198;2022-09-09T07:57:43;5.20;;;1.30;;
65271;SDS011;51868;48.812;8.198;2022-09-09T08:00:11;5.30;;;1.20;;
65271;SDS011;51868;48.812;8.198;2022-09-09T08:02:44;3.97;;;1.17;;
65271;SDS011;51868;48.812;8.198;2022-09-09T08:05:17;5.38;;;1.33;;
65271;SDS011;51868;48.812;8.198;2022-09-09T08:07:45;4.97;;;1.10;;
65271;SDS011;51868;48.812;8.198;2022-09-09T08:10:13;3.30;;;1.00;;
65271;SDS011;51868;48.812;8.198;2022-09-09T08:12:42;1.98;;;1.20;;
65271;SDS011;51868;48.812;8.198;2022-09-09T08:15:29;4.07;;;1.25;;
65271;SDS011;51868;48.812;8.198;2022-09-09T08:17:59;3.38;;;1.27;;
65271;SDS011;51868;48.812;8.198;2022-09-09T08:20:28;3.00;;;1.05;;
65271;SDS011;51868;48.812;8.198;2022-09-09T08:22:56;4.13;;;1.23;;
65271;SDS011;51868;48.812;8.198;2022-09-09T08:25:25;4.18;;;1.30;;
65271;SDS011;51868;48.812;8.198;2022-09-09T08:27:53;3.35;;;1.30;;
65271;SDS011;51868;48.812;8.198;2022-09-09T08:30:20;6.72;;;1.25;;
65271;SDS011;51868;48.812;8.198;2022-09-09T08:32:50;3.33;;;1.17;;
65271;SDS011;51868;48.812;8.198;2022-09-09T08:35:20;4.63;;;1.00;;
65271;SDS011;51868;48.812;8.198;2022-09-09T08:37:59;8.57;;;1.20;;
65271;SDS011;51868;48.812;8.198;2022-09-09T08:40:29;7.75;;;1.30;;
65271;SDS011;51868;48.812;8.198;2022-09-09T08:43:02;3.55;;;1.17;;
65271;SDS011;51868;48.812;8.198;2022-09-09T08:45:33;3.80;;;0.80;;
65271;SDS011;51868;48.812;8.198;2022-09-09T08:48:11;6.07;;;0.95;;
65271;SDS011;51868;48.812;8.198;2022-09-09T08:50:49;6.20;;;1.10;;
65271;SDS011;51868;48.812;8.198;2022-09-09T08:53:21;3.90;;;1.15;;
65271;SDS011;51868;48.812;8.198;2022-09-09T08:55:54;6.63;;;1.30;;
65271;SDS011;51868;48.812;8.198;2022-09-09T09:01:02;5.10;;;1.52;;
65271;SDS011;51868;48.812;8.198;2022-09-09T09:03:48;3.97;;;1.40;;
65271;SDS011;51868;48.812;8.198;2022-09-09T09:06:34;5.38;;;1.25;;
65271;SDS011;51868;48.812;8.198;2022-09-09T09:09:11;3.97;;;1.35;;
65271;SDS011;51868;48.812;8.198;2022-09-09T09:11:48;7.15;;;1.20;;
65271;SDS011;51868;48.812;8.198;2022-09-09T09:14:25;3.72;;;1.00;;
65271;SDS011;51868;48.812;8.198;2022-09-09T09:16:58;5.47;;;1.10;;
65271;SDS011;51868;48.812;8.198;2022-09-09T09:19:31;12.90;;;1.60;;
65271;SDS011;51868;48.812;8.198;2022-09-09T09:22:04;4.75;;;1.02;;
65271;SDS011;51868;48.812;8.198;2022-09-09T09:25:23;5.47;;;1.30;;
65271;SDS011;51868;48.812;8.198;2022-09-09T09:28:09;5.00;;;1.48;;
65271;SDS011;51868;48.812;8.198;2022-09-09T09:30:44;2.83;;;1.40;;
65271;SDS011;51868;48.812;8.198;2022-09-09T09:33:35;3.70;;;1.00;;
65271;SDS011;51868;48.812;8.198;2022-09-09T09:36:14;5.60;;;1.45;;
65271;SDS011;51868;48.812;8.198;2022-09-09T09:39:02;8.73;;;1.58;;
65271;SDS011;51868;48.812;8.198;2022-09-09T09:41:54;4.55;;;1.20;;
65271;SDS011;51868;48.812;8.198;2022-09-09T09:44:32;4.85;;;1.20;;
65271;SDS011;51868;48.812;8.198;2022-09-09T09:47:11;7.75;;;1.40;;
65271;SDS011;51868;48.812;8.198;2022-09-09T09:49:50;4.57;;;1.13;;
65271;SDS011;51868;48.812;8.198;2022-09-09T09:52:21;5.68;;;1.35;;
65271;SDS011;51868;48.812;8.198;2022-09-09T09:54:54;6.70;;;1.42;;
65271;SDS011;51868;48.812;8.198;2022-09-09T09:57:24;4.90;;;0.90;;
65271;SDS011;51868;48.812;8.198;2022-09-09T10:00:08;4.20;;;1.00;;
65271;SDS011;51868;48.812;8.198;2022-09-09T10:02:44;3.65;;;1.42;;
65271;SDS011;51868;48.812;8.198;2022-09-09T10:05:16;6.05;;;1.23;;
65271;SDS011;51868;48.812;8.198;2022-09-09T10:08:03;9.63;;;2.00;;
65271;SDS011;51868;48.812;8.198;2022-09-09T10:10:40;3.30;;;1.27;;
65271;SDS011;51868;48.812;8.198;2022-09-09T10:13:25;6.13;;;1.27;;
65271;SDS011;51868;48.812;8.198;2022-09-09T10:16:01;4.43;;;1.05;;
65271;SDS011;51868;48.812;8.198;2022-09-09T10:21:17;2.50;;;0.90;;
65271;SDS011;51868;48.812;8.198;2022-09-09T10:24:07;4.10;;;0.90;;
65271;SDS011;51868;48.812;8.198;2022-09-09T10:26:52;3.35;;;1.10;;
65271;SDS011;51868;48.812;8.198;2022-09-09T10:29:34;3.00;;;1.50;;
65271;SDS011;51868;48.812;8.198;2022-09-09T10:32:24;5.60;;;1.25;;
65271;SDS011;51868;48.812;8.198;2022-09-09T10:35:02;4.05;;;1.10;;
65271;SDS011;51868;48.812;8.198;2022-09-09T10:37:48;4.47;;;0.90;;
65271;SDS011;51868;48.812;8.198;2022-09-09T10:40:34;3.60;;;1.00;;
65271;SDS011;51868;48.812;8.198;2022-09-09T10:43:14;6.18;;;1.02;;
65271;SDS011;51868;48.812;8.198;2022-09-09T10:46:01;2.33;;;1.08;;
65271;SDS011;51868;48.812;8.198;2022-09-09T10:48:38;4.88;;;1.00;;
65271;SDS011;51868;48.812;8.198;2022-09-09T10:51:23;4.60;;;1.10;;
65271;SDS011;51868;48.812;8.198;2022-09-09T10:54:04;4.80;;;1.15;;
65271;SDS011;51868;48.812;8.198;2022-09-09T10:56:42;1.98;;;0.88;;
65271;SDS011;51868;48.812;8.198;2022-09-09T10:59:17;3.30;;;1.10;;
65271;SDS011;51868;48.812;8.198;2022-09-09T11:01:51;4.15;;;1.20;;
65271;SDS011;51868;48.812;8.198;2022-09-09T11:04:25;5.07;;;1.17;;
65271;SDS011;51868;48.812;8.198;2022-09-09T11:06:58;5.47;;;1.30;;
65271;SDS011;51868;48.812;8.198;2022-09-09T11:09:38;2.17;;;0.88;;
65271;SDS011;51868;48.812;8.198;2022-09-09T11:12:20;1.98;;;0.93;;
65271;SDS011;51868;48.812;8.198;2022-09-09T11:14:50;6.18;;;1.30;;
65271;SDS011;51868;48.812;8.198;2022-09-09T11:17:26;2.97;;;0.90;;
65271;SDS011;51868;48.812;8.198;2022-09-09T11:20:02;2.95;;;0.90;;
65271;SDS011;51868;48.812;8.198;2022-09-09T11:22:39;2.75;;;0.75;;
65271;SDS011;51868;48.812;8.198;2022-09-09T11:25:17;2.38;;;0.80;;
65271;SDS011;51868;48.812;8.198;2022-09-09T11:27:52;8.00;;;0.98;;
65271;SDS011;51868;48.812;8.198;2022-09-09T11:30:34;3.97;;;1.00;;
65271;SDS011;51868;48.812;8.198;2022-09-09T11:33:31;3.05;;;1.23;;
65271;SDS011;51868;48.812;8.198;2022-09-09T11:36:25;3.70;;;1.00;;
65271;SDS011;51868;48.812;8.198;2022-09-09T11:39:06;4.40;;;1.10;;
65271;SDS011;51868;48.812;8.198;2022-09-09T11:41:51;4.15;;;1.10;;
65271;SDS011;51868;48.812;8.198;2022-09-09T11:44:24;4.95;;;0.77;;
65271;SDS011;51868;48.812;8.198;2022-09-09T11:46:57;2.95;;;0.80;;
65271;SDS011;51868;48.812;8.198;2022-09-09T11:49:26;2.65;;;0.75;;
65271;SDS011;51868;48.812;8.198;2022-09-09T11:51:55;2.20;;;0.88;;
65271;SDS011;51868;48.812;8.198;2022-09-09T11:54:29;2.92;;;0.85;;
65271;SDS011;51868;48.812;8.198;2022-09-09T11:56:58;4.30;;;0.70;;
65271;SDS011;51868;48.812;8.198;2022-09-09T11:59:27;1.05;;;0.50;;
65271;SDS011;51868;48.812;8.198;2022-09-09T12:02:03;2.85;;;1.40;;
65271;SDS011;51868;48.812;8.198;2022-09-09T12:04:40;2.42;;;0.90;;
65271;SDS011;51868;48.812;8.198;2022-09-09T12:10:17;3.10;;;0.88;;
65271;SDS011;51868;48.812;8.198;2022-09-09T12:12:49;3.78;;;0.80;;
65271;SDS011;51868;48.812;8.198;2022-09-09T12:15:22;1.52;;;0.60;;
65271;SDS011;51868;48.812;8.198;2022-09-09T12:17:56;2.03;;;0.60;;
65271;SDS011;51868;48.812;8.198;2022-09-09T12:20:31;3.65;;;0.80;;
65271;SDS011;51868;48.812;8.198;2022-09-09T12:23:14;2.20;;;0.80;;
65271;SDS011;51868;48.812;8.198;2022-09-09T12:25:54;7.72;;;1.45;;
65271;SDS011;51868;48.812;8.198;2022-09-09T12:28:37;3.63;;;1.20;;
65271;SDS011;51868;48.812;8.198;2022-09-09T12:31:13;5.95;;;1.10;;
65271;SDS011;51868;48.812;8.198;2022-09-09T12:33:48;2.80;;;1.00;;
65271;SDS011;51868;48.812;8.198;2022-09-09T12:36:18;4.13;;;0.90;;
65271;SDS011;51868;48.812;8.198;2022-09-09T12:38:47;4.23;;;1.03;;
65271;SDS011;51868;48.812;8.198;2022-09-09T12:41:20;3.38;;;1.10;;
65271;SDS011;51868;48.812;8.198;2022-09-09T12:44:02;7.95;;;1.35;;
65271;SDS011;51868;48.812;8.198;2022-09-09T12:46:32;6.78;;;1.20;;
65271;SDS011;51868;48.812;8.198;2022-09-09T12:49:19;4.78;;;1.27;;
65271;SDS011;51868;48.812;8.198;2022-09-09T12:52:01;4.93;;;1.00;;
65271;SDS011;51868;48.812;8.198;2022-09-09T12:54:32;3.10;;;0.90;;
65271;SDS011;51868;48.812;8.198;2022-09-09T12:59:38;2.28;;;0.70;;
65271;SDS011;51868;48.812;8.198;2022-09-09T13:02:14;2.90;;;0.80;;
65271;SDS011;51868;48.812;8.198;2022-09-09T13:04:47;2.88;;;0.80;;
65271;SDS011;51868;48.812;8.198;2022-09-09T13:07:17;3.72;;;0.80;;
65271;SDS011;51868;48.812;8.198;2022-09-09T13:09:47;2.83;;;0.88;;
65271;SDS011;51868;48.812;8.198;2022-09-09T13:12:17;3.28;;;1.10;;
65271;SDS011;51868;48.812;8.198;2022-09-09T13:14:49;7.10;;;1.05;;
65271;SDS011;51868;48.812;8.198;2022-09-09T13:17:23;3.97;;;0.90;;
65271;SDS011;51868;48.812;8.198;2022-09-09T13:20:02;1.90;;;1.08;;
65271;SDS011;51868;48.812;8.198;2022-09-09T13:22:43;2.17;;;0.70;;
65271;SDS011;51868;48.812;8.198;2022-09-09T13:25:17;3.67;;;0.80;;
65271;SDS011;51868;48.812;8.198;2022-09-09T13:27:52;2.83;;;0.80;;
65271;SDS011;51868;48.812;8.198;2022-09-09T13:30:24;1.48;;;0.75;;
65271;SDS011;51868;48.812;8.198;2022-09-09T13:33:03;1.75;;;0.68;;
65271;SDS011;51868;48.812;8.198;2022-09-09T13:35:53;3.25;;;1.00;;
65271;SDS011;51868;48.812;8.198;2022-09-09T13:38:25;2.55;;;0.80;;
65271;SDS011;51868;48.812;8.198;2022-09-09T13:40:59;2.13;;;0.80;;
65271;SDS011;51868;48.812;8.198;2022-09-09T13:43:30;18.98;;;1.50;;
65271;SDS011;51868;48.812;8.198;2022-09-09T13:46:03;2.33;;;0.73;;
65271;SDS011;51868;48.812;8.198;2022-09-09T13:48:35;5.22;;;0.85;;
65271;SDS011;51868;48.812;8.198;2022-09-09T13:51:05;4.63;;;0.73;;
65271;SDS011;51868;48.812;8.198;2022-09-09T13:53:47;5.15;;;0.77;;
65271;SDS011;51868;48.812;8.198;2022-09-09T13:56:18;2.35;;;0.60;;
65271;SDS011;51868;48.812;8.198;2022-09-09T13:58:50;1.27;;;0.60;;
65271;SDS011;51868;48.812;8.198;2022-09-09T14:01:19;2.90;;;0.70;;
65271;SDS011;51868;48.812;8.198;2022-09-09T14:03:55;3.75;;;0.77;;
65271;SDS011;51868;48.812;8.198;2022-09-09T14:06:26;2.35;;;0.52;;
65271;SDS011;51868;48.812;8.198;2022-09-09T14:08:56;1.88;;;0.90;;
65271;SDS011;51868;48.812;8.198;2022-09-09T14:11:27;2.72;;;0.70;;
65271;SDS011;51868;48.812;8.198;2022-09-09T14:13:55;1.35;;;0.47;;
65271;SDS011;51868;48.812;8.198;2022-09-09T14:16:27;3.35;;;0.63;;
65271;SDS011;51868;48.812;8.198;2022-09-09T14:18:58;1.47;;;0.70;;
65271;SDS011;51868;48.812;8.198;2022-09-09T14:21:28;3.05;;;0.60;;
65271;SDS011;51868;48.812;8.198;2022-09-09T14:23:56;2.38;;;0.70;;
65271;SDS011;51868;48.812;8.198;2022-09-09T14:26:25;1.52;;;0.50;;
65271;SDS011;51868;48.812;8.198;2022-09-09T14:28:55;2.75;;;0.60;;
65271;SDS011;51868;48.812;8.198;2022-09-09T14:31:24;3.92;;;0.52;;
65271;SDS011;51868;48.812;8.198;2022-09-09T14:33:53;2.15;;;0.73;;
65271;SDS011;51868;48.812;8.198;2022-09-09T14:36:21;2.88;;;0.70;;
65271;SDS011;51868;48.812;8.198;2022-09-09T14:38:53;2.90;;;0.50;;
65271;SDS011;51868;48.812;8.198;2022-09-09T14:41:21;3.60;;;0.68;;
65271;SDS011;51868;48.812;8.198;2022-09-09T14:43:49;3.60;;;0.57;;
65271;SDS011;51868;48.812;8.198;2022-09-09T14:46:20;2.38;;;0.75;;
65271;SDS011;51868;48.812;8.198;2022-09-09T14:48:50;3.13;;;0.70;;
65271;SDS011;51868;48.812;8.198;2022-09-09T14:58:37;3.15;;;0.70;;
65271;SDS011;51868;48.812;8.198;2022-09-09T15:01:06;2.15;;;0.60;;
65271;SDS011;51868;48.812;8.198;2022-09-09T15:03:36;2.92;;;0.70;;
65271;SDS011;51868;48.812;8.198;2022-09-09T15:06:09;3.08;;;0.70;;
65271;SDS011;51868;48.812;8.198;2022-09-09T15:08:39;3.03;;;0.93;;
65271;SDS011;51868;48.812;8.198;2022-09-09T15:11:13;2.53;;;0.70;;
65271;SDS011;51868;48.812;8.198;2022-09-09T15:13:43;2.28;;;0.70;;
65271;SDS011;51868;48.812;8.198;2022-09-09T15:16:12;3.75;;;0.80;;
65271;SDS011;51868;48.812;8.198;2022-09-09T15:18:50;2.63;;;0.50;;
65271;SDS011;51868;48.812;8.198;2022-09-09T15:21:20;3.20;;;0.63;;
65271;SDS011;51868;48.812;8.198;2022-09-09T15:23:55;3.22;;;0.80;;
65271;SDS011;51868;48.812;8.198;2022-09-09T15:26:23;3.10;;;0.98;;
65271;SDS011;51868;48.812;8.198;2022-09-09T15:28:53;4.13;;;0.82;;
65271;SDS011;51868;48.812;8.198;2022-09-09T15:31:26;4.05;;;0.82;;
65271;SDS011;51868;48.812;8.198;2022-09-09T15:34:00;3.97;;;0.63;;
65271;SDS011;51868;48.812;8.198;2022-09-09T15:36:31;2.97;;;0.70;;
65271;SDS011;51868;48.812;8.198;2022-09-09T15:39:04;2.45;;;0.60;;
65271;SDS011;51868;48.812;8.198;2022-09-09T15:41:36;3.80;;;0.60;;
65271;SDS011;51868;48.812;8.198;2022-09-09T15:44:07;1.27;;;0.60;;